createdAt,value
2022-09-09T00:01:52.297Z,3.83
2022-09-09T00:04:21.915Z,4.75
2022-09-09T00:06:51.313Z,6.07
2022-09-09T00:09:18.991Z,8.45
2022-09-09T00:12:09.526Z,6.38
2022-09-09T00:14:40.394Z,7.45
2022-09-09T00:17:13.167Z,5.80
2022-09-09T00:19:46.625Z,5.57
2022-09-09T00:22:14.216Z,3.47
2022-09-09T00:24:47.030Z,5.40
2022-09-09T00:27:19.631Z,4.65
2022-09-09T00:29:48.303Z,3.90
2022-09-09T00:32:17.184Z,3.95
2022-09-09T00:35:04.340Z,6.93
2022-09-09T00:37:36.035Z,4.88
2022-09-09T00:40:07.873Z,4.35
2022-09-09T00:42:41.233Z,2.38
2022-09-09T00:45:29.955Z,4.40
2022-09-09T00:47:57.894Z,2.92
2022-09-09T00:50:44.558Z,2.72
2022-09-09T00:53:27.323Z,3.90
2022-09-09T00:55:59.912Z,4.00
2022-09-09T00:58:28.434Z,3.92
2022-09-09T01:01:14.131Z,4.45
2022-09-09T01:03:49.927Z,4.85
2022-09-09T01:06:32.982Z,3.90
2022-09-09T01:09:09.070Z,3.50
2022-09-09T01:11:54.064Z,2.63
2022-09-09T01:14:36.102Z,4.70
2022-09-09T01:17:06.556Z,4.95
2022-09-09T01:19:45.574Z,2.92
2022-09-09T01:22:32.489Z,3.65
2022-09-09T01:25:09.187Z,4.00
2022-09-09T01:27:53.678Z,2.28
2022-09-09T01:30:20.343Z,4.18
2022-09-09T01:32:49.251Z,3.30
2022-09-09T01:35:28.784Z,3.10
2022-09-09T01:37:55.455Z,4.60
2022-09-09T01:40:22.034Z,3.60
2022-09-09T01:42:49.474Z,2.00
2022-09-09T01:45:16.235Z,4.15
2022-09-09T01:47:42.925Z,3.28
2022-09-09T01:50:25.767Z,5.88
2022-09-09T01:52:56.989Z,3.10
2022-09-09T01:55:30.791Z,5.18
2022-09-09T01:58:03.435Z,5.00
2022-09-09T02:00:32.847Z,4.75
2022-09-09T02:03:12.182Z,4.45
2022-09-09T02:06:06.421Z,3.22
2022-09-09T02:08:40.841Z,3.72
2022-09-09T02:11:14.156Z,2.97
2022-09-09T02:13:46.175Z,5.00
2022-09-09T02:16:26.233Z,5.20
2022-09-09T02:19:27.757Z,5.22
2022-09-09T02:22:06.899Z,3.75
2022-09-09T02:24:38.204Z,2.30
2022-09-09T02:27:23.039Z,5.70
2022-09-09T02:29:51.541Z,4.43
2022-09-09T02:32:24.449Z,5.10
2022-09-09T02:34:55.099Z,3.30
2022-09-09T02:37:24.471Z,4.57
2022-09-09T02:39:53.143Z,4.93
2022-09-09T02:42:21.844Z,5.38
2022-09-09T02:44:49.145Z,4.85
2022-09-09T02:47:25.358Z,3.78
2022-09-09T02:50:12.157Z,3.50
2022-09-09T02:52:42.269Z,3.47
2022-09-09T02:55:19.036Z,3.58
2022-09-09T02:57:48.499Z,2.55
2022-09-09T03:00:16.875Z,7.20
2022-09-09T03:02:46.317Z,4.50
2022-09-09T03:05:14.130Z,8.23
2022-09-09T03:07:41.185Z,3.85
2022-09-09T03:10:09.143Z,3.40
2022-09-09T03:12:36.042Z,5.85
2022-09-09T03:15:03.329Z,4.43
2022-09-09T03:17:29.777Z,3.80
2022-09-09T03:19:58.744Z,3.50
2022-09-09T03:22:26.285Z,6.07
2022-09-09T03:24:53.041Z,5.03
2022-09-09T03:27:20.434Z,3.30
2022-09-09T03:29:47.513Z,4.25
2022-09-09T03:32:19.938Z,3.08
2022-09-09T03:34:50.524Z,3.97
2022-09-09T03:37:18.603Z,3.33
2022-09-09T03:39:45.580Z,5.28
2022-09-09T03:42:15.048Z,5.25
2022-09-09T03:44:42.855Z,5.13
2022-09-09T03:47:09.272Z,4.63
2022-09-09T03:49:36.277Z,5.38
2022-09-09T03:52:02.920Z,5.75
2022-09-09T03:54:29.581Z,5.25
2022-09-09T03:56:56.383Z,5.25
2022-09-09T03:59:24.034Z,5.03
2022-09-09T04:01:50.466Z,6.82
2022-09-09T04:04:16.961Z,37.08
2022-09-09T04:06:43.375Z,41.25
2022-09-09T04:09:09.917Z,38.10
2022-09-09T04:11:37.871Z,24.15
2022-09-09T04:14:06.892Z,10.05
2022-09-09T04:16:34.042Z,9.57
2022-09-09T04:19:01.032Z,4.97
2022-09-09T04:21:27.420Z,5.22
2022-09-09T04:23:54.320Z,5.22
2022-09-09T04:26:21.135Z,4.18
2022-09-09T04:28:47.898Z,4.13
2022-09-09T04:31:21.157Z,5.78
2022-09-09T04:33:49.104Z,8.05
2022-09-09T04:36:16.369Z,6.00
2022-09-09T04:38:42.945Z,4.43
2022-09-09T04:41:12.062Z,5.65
2022-09-09T04:43:41.356Z,6.93
2022-09-09T04:46:10.014Z,5.03
2022-09-09T04:48:36.582Z,5.97
2022-09-09T04:51:07.931Z,6.35
2022-09-09T04:53:39.402Z,5.70
2022-09-09T04:56:08.315Z,6.35
2022-09-09T04:58:39.829Z,4.25
2022-09-09T05:01:10.621Z,5.18
2022-09-09T05:03:39.612Z,4.15
2022-09-09T05:06:11.099Z,6.25
2022-09-09T05:08:38.507Z,4.32
2022-09-09T05:11:05.700Z,6.22
2022-09-09T05:13:32.922Z,6.60
2022-09-09T05:15:59.923Z,4.85
2022-09-09T05:18:26.615Z,5.07
2022-09-09T05:20:53.178Z,5.80
2022-09-09T05:23:19.732Z,4.10
2022-09-09T05:25:55.031Z,7.85
2022-09-09T05:28:21.559Z,4.93
2022-09-09T05:30:55.735Z,3.85
2022-09-09T05:33:22.163Z,5.43
2022-09-09T05:35:49.871Z,4.50
2022-09-09T05:38:19.088Z,6.53
2022-09-09T05:40:51.040Z,4.35
2022-09-09T05:43:17.467Z,4.97
2022-09-09T05:45:43.894Z,6.15
2022-09-09T05:48:10.378Z,4.88
2022-09-09T05:50:36.959Z,6.47
2022-09-09T05:53:04.545Z,4.60
2022-09-09T05:55:32.110Z,4.65
2022-09-09T05:57:58.586Z,5.00
2022-09-09T06:00:27.171Z,6.15
2022-09-09T06:02:53.903Z,6.13
2022-09-09T06:05:23.849Z,7.57
2022-09-09T06:07:53.194Z,6.15
2022-09-09T06:10:20.235Z,7.70
2022-09-09T06:12:46.725Z,3.90
2022-09-09T06:15:13.298Z,5.05
2022-09-09T06:17:39.896Z,4.05
2022-09-09T06:20:10.186Z,5.55
2022-09-09T06:22:36.696Z,6.57
2022-09-09T06:25:04.933Z,4.35
2022-09-09T06:27:31.866Z,4.88
2022-09-09T06:29:59.700Z,6.53
2022-09-09T06:32:29.042Z,5.30
2022-09-09T06:34:55.516Z,4.32
2022-09-09T06:37:22.146Z,4.88
2022-09-09T06:39:50.342Z,4.63
2022-09-09T06:42:17.129Z,4.18
2022-09-09T06:44:51.640Z,5.63
2022-09-09T06:47:44.364Z,3.85
2022-09-09T06:50:11.990Z,5.50
2022-09-09T06:52:39.491Z,5.85
2022-09-09T06:55:09.168Z,4.60
2022-09-09T06:57:37.893Z,5.82
2022-09-09T07:00:09.634Z,4.85
2022-09-09T07:02:40.170Z,4.05
2022-09-09T07:05:09.449Z,4.97
2022-09-09T07:07:36.400Z,5.95
2022-09-09T07:10:05.073Z,2.45
2022-09-09T07:12:31.636Z,3.88
2022-09-09T07:14:59.959Z,6.63
2022-09-09T07:17:26.460Z,3.97
2022-09-09T07:19:53.676Z,3.38
2022-09-09T07:22:21.261Z,3.92
2022-09-09T07:24:47.919Z,5.93
2022-09-09T07:27:15.149Z,4.03
2022-09-09T07:29:42.383Z,4.75
2022-09-09T07:32:09.934Z,3.70
2022-09-09T07:34:38.209Z,4.95
2022-09-09T07:37:06.859Z,5.82
2022-09-09T07:39:35.144Z,3.30
2022-09-09T07:42:01.884Z,5.07
2022-09-09T07:44:29.084Z,4.60
2022-09-09T07:47:03.197Z,2.63
2022-09-09T07:49:37.413Z,4.47
2022-09-09T07:54:33.818Z,6.55
2022-09-09T07:57:06.743Z,4.97
2022-09-09T07:59:35.802Z,5.10
2022-09-09T08:02:06.360Z,3.17
2022-09-09T08:04:35.823Z,4.60
2022-09-09T08:07:04.434Z,3.53
2022-09-09T08:09:37.041Z,4.57
2022-09-09T08:12:09.958Z,4.78
2022-09-09T08:14:36.758Z,4.32
2022-09-09T08:17:03.626Z,3.15
2022-09-09T08:19:34.935Z,5.03
2022-09-09T08:22:02.853Z,6.70
2022-09-09T08:24:30.263Z,4.57
2022-09-09T08:26:59.293Z,3.95
2022-09-09T08:29:28.066Z,3.47
2022-09-09T08:31:55.862Z,3.58
2022-09-09T08:34:22.848Z,4.80
2022-09-09T08:36:51.330Z,5.18
2022-09-09T08:39:21.685Z,3.53
2022-09-09T08:42:08.647Z,4.85
2022-09-09T08:44:48.847Z,5.70
2022-09-09T08:47:19.405Z,4.78
2022-09-09T08:50:04.409Z,7.15
2022-09-09T08:52:33.870Z,7.50
2022-09-09T08:55:22.432Z,5.95
2022-09-09T08:57:57.061Z,4.15
2022-09-09T09:00:30.123Z,4.53
2022-09-09T09:03:07.946Z,4.18
2022-09-09T09:05:59.042Z,4.35
2022-09-09T09:08:25.528Z,5.20
2022-09-09T09:10:54.821Z,4.80
2022-09-09T09:13:44.245Z,3.95
2022-09-09T09:16:16.530Z,3.83
2022-09-09T09:18:43.976Z,3.75
2022-09-09T09:21:13.651Z,3.10
2022-09-09T09:24:04.927Z,3.42
2022-09-09T09:26:34.533Z,4.03
2022-09-09T09:29:06.029Z,4.50
2022-09-09T09:31:35.488Z,3.22
2022-09-09T09:34:04.714Z,3.15
2022-09-09T09:36:55.221Z,5.32
2022-09-09T09:42:28.082Z,2.40
2022-09-09T09:44:56.745Z,4.35
2022-09-09T09:47:24.424Z,2.10
2022-09-09T09:50:20.400Z,3.92
2022-09-09T09:52:56.979Z,1.92
2022-09-09T09:55:25.454Z,3.40
2022-09-09T09:57:52.955Z,2.38
2022-09-09T10:00:24.296Z,3.58
2022-09-09T10:03:21.334Z,9.20
2022-09-09T10:05:48.919Z,3.60
2022-09-09T10:08:21.745Z,4.15
2022-09-09T10:10:57.461Z,5.57
2022-09-09T10:13:29.439Z,2.88
2022-09-09T10:16:08.376Z,4.85
2022-09-09T10:18:42.046Z,6.05
2022-09-09T10:21:11.946Z,3.33
2022-09-09T10:23:47.490Z,1.83
2022-09-09T10:26:29.276Z,2.55
2022-09-09T10:29:14.469Z,3.08
2022-09-09T10:31:57.771Z,3.35
2022-09-09T10:34:31.609Z,3.45
2022-09-09T10:36:59.335Z,6.05
2022-09-09T10:39:40.718Z,2.25
2022-09-09T10:42:11.681Z,2.97
2022-09-09T10:44:42.689Z,4.07
2022-09-09T10:47:28.241Z,4.28
2022-09-09T10:50:13.609Z,3.17
2022-09-09T10:52:55.667Z,1.88
2022-09-09T10:55:29.935Z,3.00
2022-09-09T10:57:59.066Z,2.03
2022-09-09T11:00:28.318Z,3.45
2022-09-09T11:03:19.241Z,4.45
2022-09-09T11:05:48.656Z,3.45
2022-09-09T11:08:21.065Z,3.45
2022-09-09T11:11:04.675Z,2.92
2022-09-09T11:13:44.949Z,1.45
2022-09-09T11:16:22.032Z,1.02
2022-09-09T11:18:48.721Z,2.42
2022-09-09T11:21:20.011Z,2.30
2022-09-09T11:23:50.420Z,2.75
2022-09-09T11:26:19.789Z,3.28
2022-09-09T11:28:59.497Z,1.73
2022-09-09T11:31:32.094Z,3.10
2022-09-09T11:34:17.597Z,2.65
2022-09-09T11:36:43.989Z,2.58
2022-09-09T11:39:22.595Z,2.72
2022-09-09T11:41:49.166Z,2.28
2022-09-09T11:44:24.906Z,3.63
2022-09-09T11:46:52.979Z,2.38
2022-09-09T11:49:42.873Z,2.05
2022-09-09T11:52:15.143Z,1.08
2022-09-09T11:54:49.102Z,2.63
2022-09-09T11:57:35.788Z,2.80
2022-09-09T12:00:06.249Z,1.95
2022-09-09T12:02:52.782Z,2.45
2022-09-09T12:05:22.135Z,3.85
2022-09-09T12:07:54.897Z,1.60
2022-09-09T12:10:24.052Z,2.42
2022-09-09T12:12:50.589Z,4.07
2022-09-09T12:15:17.206Z,4.25
2022-09-09T12:17:47.760Z,5.75
2022-09-09T12:20:14.449Z,3.80
2022-09-09T12:22:55.764Z,2.85
2022-09-09T12:25:27.691Z,3.80
2022-09-09T12:28:03.253Z,6.00
2022-09-09T12:30:33.017Z,5.88
2022-09-09T12:33:03.776Z,3.58
2022-09-09T12:35:32.078Z,3.40
2022-09-09T12:38:03.376Z,2.92
2022-09-09T12:40:32.532Z,2.88
2022-09-09T12:43:02.663Z,4.68
2022-09-09T12:45:33.317Z,4.43
2022-09-09T12:47:59.712Z,2.90
2022-09-09T12:50:27.351Z,4.13
2022-09-09T12:52:55.270Z,5.38
2022-09-09T12:55:28.360Z,3.20
2022-09-09T12:57:54.956Z,2.35
2022-09-09T13:00:23.796Z,15.00
2022-09-09T13:02:53.228Z,14.45
2022-09-09T13:05:24.534Z,7.65
2022-09-09T13:07:51.638Z,6.35
2022-09-09T13:10:36.662Z,7.18
2022-09-09T13:13:17.112Z,5.05
2022-09-09T13:15:50.306Z,4.82
2022-09-09T13:18:18.313Z,4.32
2022-09-09T13:20:51.062Z,6.75
2022-09-09T13:23:20.737Z,7.03
2022-09-09T13:26:01.004Z,5.20
2022-09-09T13:28:33.563Z,9.27
2022-09-09T13:31:03.335Z,5.65
2022-09-09T13:33:38.264Z,3.88
2022-09-09T13:36:09.077Z,7.55
2022-09-09T13:38:52.300Z,5.53
2022-09-09T13:41:26.148Z,8.27
2022-09-09T13:43:53.251Z,10.48
2022-09-09T13:46:35.229Z,9.88
2022-09-09T13:49:03.964Z,10.27
2022-09-09T13:51:35.813Z,15.88
2022-09-09T13:54:02.293Z,7.82
2022-09-09T13:56:28.721Z,6.35
2022-09-09T13:58:55.281Z,8.15
2022-09-09T14:01:24.293Z,9.30
2022-09-09T14:03:53.950Z,7.72
2022-09-09T14:06:22.966Z,5.78
2022-09-09T14:08:52.687Z,3.83
2022-09-09T14:11:19.367Z,8.95
2022-09-09T14:13:45.972Z,6.40
2022-09-09T14:16:13.153Z,4.25
2022-09-09T14:18:40.122Z,5.00
2022-09-09T14:21:06.641Z,5.03
2022-09-09T14:23:33.344Z,5.68
2022-09-09T14:25:59.839Z,4.45
2022-09-09T14:28:52.006Z,4.30
2022-09-09T14:31:14.411Z,2.17
2022-09-09T14:33:41.438Z,2.55
2022-09-09T14:36:07.962Z,6.25
2022-09-09T14:38:35.402Z,3.90
2022-09-09T14:41:04.354Z,4.65
2022-09-09T14:43:33.681Z,2.88
2022-09-09T14:46:07.411Z,1.80
2022-09-09T14:48:34.662Z,12.27
2022-09-09T14:51:07.747Z,4.72
2022-09-09T14:53:38.509Z,13.77
2022-09-09T14:56:25.571Z,7.07
2022-09-09T14:58:53.981Z,8.90
2022-09-09T15:01:21.351Z,3.15
2022-09-09T15:03:52.277Z,24.17
2022-09-09T15:06:19.111Z,2.72
2022-09-09T15:08:46.378Z,12.27
2022-09-09T15:11:14.024Z,6.68
2022-09-09T15:13:41.038Z,10.10
2022-09-09T15:16:08.484Z,2.55
2022-09-09T15:18:37.238Z,9.68
2022-09-09T15:21:05.914Z,5.90
2022-09-09T15:23:35.849Z,5.90
2022-09-09T15:26:04.668Z,5.88
2022-09-09T15:28:32.527Z,2.33
2022-09-09T15:31:00.837Z,6.20
2022-09-09T15:33:27.315Z,2.40
2022-09-09T15:35:56.673Z,4.85
2022-09-09T15:38:26.328Z,7.40
2022-09-09T15:40:56.383Z,4.70
2022-09-09T15:43:23.148Z,9.07
2022-09-09T15:45:53.529Z,3.97
2022-09-09T15:48:19.958Z,33.30
2022-09-09T15:50:46.361Z,14.30
2022-09-09T15:53:12.859Z,8.93
2022-09-09T15:55:39.262Z,25.25
2022-09-09T15:58:05.740Z,6.80
2022-09-09T16:00:32.226Z,7.72
2022-09-09T16:02:58.729Z,25.98
2022-09-09T16:05:25.708Z,21.63
2022-09-09T16:07:53.286Z,7.50
2022-09-09T16:10:19.673Z,18.35
2022-09-09T16:12:46.107Z,19.13
2022-09-09T16:15:13.581Z,33.40
2022-09-09T16:17:40.030Z,17.48
2022-09-09T16:20:09.329Z,8.20
2022-09-09T16:22:35.723Z,9.65
2022-09-09T16:25:02.195Z,11.35
2022-09-09T16:27:28.641Z,16.65
2022-09-09T16:29:55.096Z,8.98
2022-09-09T16:32:21.472Z,24.20
2022-09-09T16:34:47.911Z,9.52
2022-09-09T16:37:14.343Z,11.57
2022-09-09T16:39:40.814Z,18.25
2022-09-09T16:42:07.338Z,17.17
2022-09-09T16:44:34.180Z,12.30
2022-09-09T16:47:01.373Z,15.60
2022-09-09T16:49:29.309Z,10.10
2022-09-09T16:51:58.267Z,10.35
2022-09-09T16:54:26.328Z,10.93
2022-09-09T16:56:52.749Z,18.85
2022-09-09T16:59:20.430Z,17.27
2022-09-09T17:01:48.387Z,12.00
2022-09-09T17:04:21.237Z,18.30
2022-09-09T17:06:48.530Z,14.32
2022-09-09T17:09:15.026Z,13.75
2022-09-09T17:11:42.242Z,28.58
2022-09-09T17:14:10.266Z,24.63
2022-09-09T17:16:37.123Z,13.05
2022-09-09T17:19:04.590Z,23.35
2022-09-09T17:21:31.774Z,16.20
2022-09-09T17:23:58.345Z,11.45
2022-09-09T17:26:27.539Z,11.00
2022-09-09T17:28:58.702Z,13.68
2022-09-09T17:31:26.820Z,17.00
2022-09-09T17:33:53.704Z,14.38
2022-09-09T17:36:22.755Z,12.32
2022-09-09T17:38:50.028Z,13.85
2022-09-09T17:41:20.888Z,17.98
2022-09-09T17:43:47.745Z,14.43
2022-09-09T17:46:30.819Z,10.50
2022-09-09T17:48:58.385Z,13.88
2022-09-09T17:51:26.910Z,14.20
2022-09-09T17:53:55.704Z,15.45
2022-09-09T17:56:22.963Z,17.73
2022-09-09T17:58:50.272Z,12.43
2022-09-09T18:01:18.719Z,17.10
2022-09-09T18:03:47.412Z,14.43
2022-09-09T18:06:16.281Z,20.52
2022-09-09T18:08:43.409Z,16.98
2022-09-09T18:11:09.874Z,12.00
2022-09-09T18:13:36.304Z,15.27
2022-09-09T18:16:06.913Z,9.32
2022-09-09T18:18:33.675Z,13.93
2022-09-09T18:21:03.973Z,9.90
2022-09-09T18:23:31.048Z,8.70
2022-09-09T18:25:59.007Z,13.07
2022-09-09T18:28:27.127Z,11.45
2022-09-09T18:30:54.007Z,18.52
2022-09-09T18:33:20.438Z,14.55
2022-09-09T18:35:48.294Z,19.17
2022-09-09T18:38:17.266Z,14.20
2022-09-09T18:40:43.929Z,8.10
2022-09-09T18:43:12.812Z,18.63
2022-09-09T18:45:39.358Z,7.00
2022-09-09T18:48:05.815Z,16.88
2022-09-09T18:50:33.783Z,14.10
2022-09-09T18:53:00.194Z,13.82
2022-09-09T18:55:26.801Z,12.85
2022-09-09T18:57:53.307Z,14.23
2022-09-09T19:00:19.722Z,19.98
2022-09-09T19:02:49.287Z,16.13
2022-09-09T19:05:15.709Z,10.73
2022-09-09T19:07:42.115Z,14.60
2022-09-09T19:10:08.684Z,12.43
2022-09-09T19:12:35.524Z,13.68
2022-09-09T19:15:01.988Z,16.25
2022-09-09T19:17:30.365Z,12.27
2022-09-09T19:19:58.200Z,15.55
2022-09-09T19:22:25.995Z,9.23
2022-09-09T19:24:52.615Z,13.63
2022-09-09T19:27:19.033Z,17.23
2022-09-09T19:29:45.476Z,13.00
2022-09-09T19:35:01.448Z,11.48
2022-09-09T19:37:28.234Z,10.60
2022-09-09T19:39:55.332Z,23.40
2022-09-09T19:42:21.768Z,12.85
2022-09-09T19:44:48.182Z,13.52
2022-09-09T19:47:15.658Z,17.27
2022-09-09T19:49:47.218Z,14.98
2022-09-09T19:52:14.518Z,13.13
2022-09-09T19:54:41.017Z,16.27
2022-09-09T19:57:07.592Z,12.55
2022-09-09T19:59:34.111Z,15.60
2022-09-09T20:02:00.698Z,15.80
2022-09-09T20:04:27.399Z,14.00
2022-09-09T20:06:54.993Z,13.93
2022-09-09T20:09:21.868Z,16.30
2022-09-09T20:11:49.169Z,13.70
2022-09-09T20:14:16.383Z,15.50
2022-09-09T20:16:42.984Z,15.25
2022-09-09T20:19:11.089Z,15.40
2022-09-09T20:21:45.275Z,18.50
2022-09-09T20:24:15.020Z,17.90
2022-09-09T20:26:41.721Z,24.80
2022-09-09T20:29:15.282Z,18.15
2022-09-09T20:31:43.637Z,17.98
2022-09-09T20:34:11.625Z,15.45
2022-09-09T20:36:38.804Z,11.48
2022-09-09T20:39:08.436Z,16.83
2022-09-09T20:41:36.206Z,15.80
2022-09-09T20:44:04.374Z,20.98
2022-09-09T20:46:33.151Z,22.27
2022-09-09T20:49:03.040Z,16.05
2022-09-09T20:51:32.776Z,25.48
2022-09-09T20:54:00.440Z,16.98
2022-09-09T20:56:27.474Z,13.95
2022-09-09T20:58:54.165Z,18.42
2022-09-09T21:01:21.292Z,16.85
2022-09-09T21:03:47.952Z,19.70
2022-09-09T21:06:14.972Z,12.00
2022-09-09T21:08:41.577Z,17.23
2022-09-09T21:11:08.083Z,16.67
2022-09-09T21:13:36.924Z,18.92
2022-09-09T21:16:04.776Z,17.48
2022-09-09T21:18:32.336Z,20.70
2022-09-09T21:20:58.768Z,16.88
2022-09-09T21:23:25.181Z,19.40
2022-09-09T21:25:51.936Z,18.15
2022-09-09T21:28:18.441Z,12.20
2022-09-09T21:30:48.079Z,16.17
2022-09-09T21:33:14.968Z,17.08
2022-09-09T21:35:41.735Z,13.00
2022-09-09T21:38:10.816Z,15.85
2022-09-09T21:40:38.217Z,17.35
2022-09-09T21:43:05.700Z,13.77
2022-09-09T21:45:34.506Z,18.52
2022-09-09T21:48:01.068Z,18.40
2022-09-09T21:50:28.666Z,15.75
2022-09-09T21:52:55.447Z,22.48
2022-09-09T21:55:21.929Z,21.08
2022-09-09T21:57:50.345Z,16.08
2022-09-09T22:00:18.308Z,14.80
2022-09-09T22:02:45.185Z,18.95
2022-09-09T22:05:11.829Z,15.10
2022-09-09T22:07:39.450Z,9.65
2022-09-09T22:10:07.164Z,15.60
2022-09-09T22:12:35.029Z,26.00
2022-09-09T22:15:01.441Z,14.55
2022-09-09T22:17:30.667Z,18.65
2022-09-09T22:19:57.472Z,21.85
2022-09-09T22:22:23.986Z,14.40
2022-09-09T22:24:50.413Z,14.38
2022-09-09T22:27:16.871Z,13.90
2022-09-09T22:29:43.294Z,20.25
2022-09-09T22:32:10.016Z,14.30
2022-09-09T22:34:39.047Z,19.00
2022-09-09T22:37:06.019Z,19.17
2022-09-09T22:39:32.542Z,14.15
2022-09-09T22:41:59.182Z,23.27
2022-09-09T22:44:29.791Z,21.70
2022-09-09T22:46:56.415Z,20.60
2022-09-09T22:49:23.625Z,15.45
2022-09-09T22:51:50.104Z,13.07
2022-09-09T22:54:21.634Z,17.23
2022-09-09T22:56:48.645Z,19.15
2022-09-09T22:59:15.885Z,13.20
2022-09-09T23:01:42.867Z,20.98
2022-09-09T23:04:09.706Z,20.50
2022-09-09T23:06:39.896Z,18.55
2022-09-09T23:09:06.337Z,15.15
2022-09-09T23:11:34.049Z,10.65
2022-09-09T23:14:01.423Z,12.18
2022-09-09T23:16:33.739Z,13.10
2022-09-09T23:19:03.207Z,12.55
2022-09-09T23:21:29.849Z,8.60
2022-09-09T23:23:57.076Z,19.83
2022-09-09T23:26:25.242Z,12.60
2022-09-09T23:28:52.533Z,13.95
2022-09-09T23:31:20.655Z,9.05
2022-09-09T23:33:47.842Z,9.70
2022-09-09T23:36:19.134Z,13.98
2022-09-09T23:38:45.857Z,13.77
2022-09-09T23:41:13.397Z,11.98
2022-09-09T23:43:39.965Z,14.80
2022-09-09T23:46:07.259Z,9.77
2022-09-09T23:48:38.198Z,10.73
2022-09-09T23:51:07.876Z,8.68
2022-09-09T23:53:34.290Z,9.52
2022-09-09T23:56:01.051Z,9.02
2022-09-09T23:58:27.434Z,10.70
